Time;durP1;ratioP1;P1;durP2;ratioP2;P2;SDS_P1;SDS_P2;PMS_P1;PMS_P2;Temp;Humidity;BMP_temperature;BMP_pressure;BME280_temperature;BME280_humidity;BME280_pressure;Samples;Min_cycle;Max_cycle;Signal;HPM_P1;HPM_P2
2021/06/29 00:01:19;;;;;;;10.37;9.53;;;23.80;1.00;;;;;;5071298;28;20230;-55
2021/06/29 00:03:44;;;;;;;10.70;9.80;;;23.80;1.00;;;;;;5071839;28;20187;-55
2021/06/29 00:06:10;;;;;;;10.97;10.00;;;23.80;1.00;;;;;;5069930;28;20233;-57
2021/06/29 00:08:35;;;;;;;11.03;10.10;;;23.80;1.00;;;;;;5071639;28;20724;-56
2021/06/29 00:11:01;;;;;;;10.80;9.90;;;23.70;1.00;;;;;;5072670;28;20272;-56
2021/06/29 00:13:27;;;;;;;11.10;10.20;;;23.70;1.00;;;;;;5069920;28;20218;-56
2021/06/29 00:15:53;;;;;;;11.27;10.37;;;23.70;1.00;;;;;;5071406;28;20460;-55
2021/06/29 00:18:18;;;;;;;12.33;11.33;;;23.70;1.00;;;;;;5071827;28;20194;-54
2021/06/29 00:20:44;;;;;;;10.80;9.93;;;23.60;1.00;;;;;;5071427;28;20183;-55
2021/06/29 00:23:09;;;;;;;10.40;9.40;;;23.60;1.00;;;;;;5071435;28;20579;-56
2021/06/29 00:25:35;;;;;;;11.00;10.10;;;23.60;1.00;;;;;;5070984;28;20227;-55
2021/06/29 00:28:01;;;;;;;10.40;9.50;;;23.60;1.00;;;;;;5071429;28;20246;-55
2021/06/29 00:30:26;;;;;;;11.00;10.00;;;23.70;1.00;;;;;;5069975;28;20210;-55
2021/06/29 00:32:52;;;;;;;10.57;9.77;;;23.60;1.00;;;;;;5073940;28;20182;-55
2021/06/29 00:35:18;;;;;;;11.73;10.77;;;23.60;1.00;;;;;;5072361;28;20202;-56
2021/06/29 00:37:43;;;;;;;11.17;10.27;;;23.60;1.00;;;;;;5070847;28;20179;-56
2021/06/29 00:40:10;;;;;;;11.30;10.30;;;23.60;1.00;;;;;;5070992;28;20180;-57
2021/06/29 00:42:36;;;;;;;10.80;9.90;;;23.60;1.00;;;;;;5070673;28;20187;-56
2021/06/29 00:45:04;;;;;;;11.53;10.43;;;23.50;1.00;;;;;;5070469;28;20882;-56
2021/06/29 00:47:29;;;;;;;10.97;10.07;;;23.50;1.00;;;;;;5069205;28;20469;-56
2021/06/29 00:49:55;;;;;;;11.43;10.43;;;23.50;1.00;;;;;;5070119;28;20464;-57
2021/06/29 00:52:21;;;;;;;11.10;10.17;;;23.50;1.00;;;;;;5070688;28;20195;-57
2021/06/29 00:54:49;;;;;;;11.87;10.97;;;23.40;1.00;;;;;;5070517;28;20549;-56
2021/06/29 00:57:15;;;;;;;11.73;10.83;;;23.30;1.00;;;;;;5071133;28;20437;-55
2021/06/29 00:59:41;;;;;;;10.93;10.07;;;23.30;1.00;;;;;;5070261;28;20952;-56
2021/06/29 01:02:08;;;;;;;11.70;10.80;;;23.20;1.00;;;;;;5070506;28;20549;-55
2021/06/29 01:04:36;;;;;;;11.17;10.27;;;23.10;1.00;;;;;;5070720;28;20445;-55
2021/06/29 01:07:03;;;;;;;11.60;10.60;;;23.20;1.00;;;;;;5070030;28;21890;-56
2021/06/29 01:09:29;;;;;;;12.33;11.30;;;23.10;1.00;;;;;;5070364;28;20605;-55
2021/06/29 01:11:54;;;;;;;11.60;10.70;;;23.10;1.00;;;;;;5070509;28;20547;-56
2021/06/29 01:14:20;;;;;;;11.20;10.30;;;23.00;1.00;;;;;;5070472;28;20764;-55
2021/06/29 01:16:45;;;;;;;12.13;11.17;;;23.10;1.00;;;;;;5070768;28;20270;-57
2021/06/29 01:19:13;;;;;;;12.17;11.10;;;22.90;1.00;;;;;;5070947;28;20216;-55
2021/06/29 01:21:41;;;;;;;11.00;10.20;;;23.00;1.00;;;;;;5052665;28;20175;-54
2021/06/29 01:24:20;;;;;;;11.53;10.60;;;22.90;1.00;;;;;;5070033;28;20945;-56
2021/06/29 01:26:57;;;;;;;13.17;12.07;;;22.90;1.00;;;;;;5070031;28;20449;-55
2021/06/29 01:29:35;;;;;;;12.57;11.57;;;22.80;1.00;;;;;;5070405;28;20461;-55
2021/06/29 01:32:01;;;;;;;11.73;10.77;;;22.70;1.00;;;;;;5070001;28;20456;-56
2021/06/29 01:34:26;;;;;;;12.30;11.37;;;22.80;1.00;;;;;;5071228;28;20434;-56
2021/06/29 01:36:52;;;;;;;12.30;11.30;;;22.90;1.00;;;;;;5070254;28;20536;-55
2021/06/29 01:39:17;;;;;;;11.77;10.70;;;23.10;1.00;;;;;;5068893;28;20640;-55
2021/06/29 01:41:43;;;;;;;12.10;11.20;;;22.80;1.00;;;;;;5069137;28;20225;-55
2021/06/29 01:44:12;;;;;;;12.93;11.93;;;22.70;1.00;;;;;;5069808;28;20179;-55
2021/06/29 01:46:40;;;;;;;12.03;10.87;;;22.80;1.00;;;;;;5070204;28;20199;-54
2021/06/29 01:49:06;;;;;;;12.10;11.20;;;22.70;1.00;;;;;;5069915;28;20429;-55
2021/06/29 01:51:32;;;;;;;12.57;11.40;;;22.60;1.00;;;;;;5069929;28;20454;-56
2021/06/29 01:53:57;;;;;;;12.50;11.40;;;22.60;1.00;;;;;;5069622;28;20183;-57
2021/06/29 01:56:35;;;;;;;12.83;11.57;;;22.60;1.00;;;;;;5069311;28;20266;-55
2021/06/29 01:59:16;;;;;;;12.53;11.53;;;22.60;1.00;;;;;;5070150;28;20187;-56
2021/06/29 02:01:43;;;;;;;12.10;10.90;;;22.60;1.00;;;;;;5067590;28;20441;-56
2021/06/29 02:04:08;;;;;;;11.90;10.80;;;22.50;1.00;;;;;;5069509;28;20465;-59
2021/06/29 02:06:34;;;;;;;11.23;10.37;;;22.50;1.00;;;;;;5069634;28;20527;-55
2021/06/29 02:08:59;;;;;;;13.00;11.80;;;22.40;1.00;;;;;;5069725;28;20179;-56
2021/06/29 02:11:25;;;;;;;12.53;11.53;;;22.40;1.00;;;;;;5069063;28;20211;-54
2021/06/29 02:13:50;;;;;;;12.43;11.53;;;22.30;1.00;;;;;;5068472;28;20264;-56
2021/06/29 02:16:16;;;;;;;12.20;11.20;;;22.30;1.00;;;;;;5070884;28;20195;-55
2021/06/29 02:18:41;;;;;;;12.17;11.07;;;22.30;1.00;;;;;;5069761;28;20192;-56
2021/06/29 02:21:08;;;;;;;12.97;11.77;;;22.30;1.00;;;;;;5068339;28;20252;-56
2021/06/29 02:23:33;;;;;;;12.40;11.30;;;22.20;1.00;;;;;;5069156;28;20210;-55
2021/06/29 02:26:00;;;;;;;13.00;11.67;;;22.20;1.00;;;;;;5069622;28;20503;-55
2021/06/29 02:28:26;;;;;;;12.73;11.63;;;22.10;1.00;;;;;;5068785;28;20551;-56
2021/06/29 02:30:51;;;;;;;13.83;12.43;;;22.10;1.00;;;;;;5069827;28;20940;-55
2021/06/29 02:33:17;;;;;;;12.37;11.37;;;22.00;1.00;;;;;;5069012;28;20454;-56
2021/06/29 02:35:43;;;;;;;12.50;11.50;;;22.00;1.00;;;;;;5069739;28;20187;-54
2021/06/29 02:38:08;;;;;;;12.97;11.87;;;22.00;1.00;;;;;;5068338;28;20191;-55
2021/06/29 02:40:34;;;;;;;14.00;12.53;;;22.00;1.00;;;;;;5069114;28;20595;-56
2021/06/29 02:43:00;;;;;;;12.93;11.93;;;21.90;1.00;;;;;;5069672;28;20226;-55
2021/06/29 02:45:26;;;;;;;13.80;12.70;;;22.00;1.00;;;;;;5069246;28;20176;-56
2021/06/29 02:47:52;;;;;;;13.10;12.00;;;22.00;1.00;;;;;;5069660;28;20504;-57
2021/06/29 02:50:18;;;;;;;12.33;11.33;;;22.00;1.00;;;;;;5069699;28;20780;-56
2021/06/29 02:52:45;;;;;;;12.50;11.50;;;22.10;1.00;;;;;;5069292;28;20440;-55
2021/06/29 02:55:13;;;;;;;12.83;11.83;;;22.10;1.00;;;;;;5069086;28;20946;-55
2021/06/29 02:57:39;;;;;;;12.27;11.23;;;22.20;1.00;;;;;;5067635;28;20449;-56
2021/06/29 03:00:14;;;;;;;12.50;11.40;;;22.20;1.00;;;;;;5069579;28;20441;-56
2021/06/29 03:02:40;;;;;;;13.60;12.40;;;22.30;1.00;;;;;;5069045;28;20809;-56
2021/06/29 03:05:06;;;;;;;12.43;11.50;;;22.20;1.00;;;;;;5069509;28;20548;-56
2021/06/29 03:07:32;;;;;;;12.97;11.77;;;22.20;1.00;;;;;;5070537;28;20221;-56
2021/06/29 03:09:58;;;;;;;12.80;11.70;;;22.10;1.00;;;;;;5071316;28;20812;-57
2021/06/29 03:12:23;;;;;;;14.03;12.87;;;22.20;1.00;;;;;;5073214;28;20176;-55
2021/06/29 03:14:53;;;;;;;13.83;12.53;;;22.30;1.00;;;;;;5073068;28;20180;-54
2021/06/29 03:17:19;;;;;;;12.00;11.00;;;22.30;1.00;;;;;;5072940;28;20258;-55
2021/06/29 03:19:45;;;;;;;13.03;11.90;;;22.30;1.00;;;;;;5072582;28;20467;-56
2021/06/29 03:22:11;;;;;;;13.17;12.10;;;22.40;1.00;;;;;;5071553;28;20449;-56
2021/06/29 03:24:36;;;;;;;12.63;11.53;;;22.40;1.00;;;;;;5054028;28;20261;-55
2021/06/29 03:27:02;;;;;;;13.03;11.60;;;22.50;1.00;;;;;;5072441;28;20489;-56
2021/06/29 03:29:28;;;;;;;12.80;11.73;;;22.60;1.00;;;;;;5072048;28;20235;-56
2021/06/29 03:31:53;;;;;;;12.93;11.80;;;22.80;1.00;;;;;;5069957;28;20550;-57
2021/06/29 03:34:19;;;;;;;12.47;11.17;;;23.10;1.00;;;;;;5072426;28;20180;-55
2021/06/29 03:36:45;;;;;;;12.90;11.60;;;23.30;1.00;;;;;;5071190;28;20181;-55
2021/06/29 03:39:11;;;;;;;13.10;11.90;;;23.10;1.00;;;;;;5072061;28;20237;-55
2021/06/29 03:41:37;;;;;;;11.10;10.20;;;23.00;1.00;;;;;;5072275;28;20179;-56
2021/06/29 03:44:03;;;;;;;12.60;11.40;;;22.90;1.00;;;;;;5072479;28;20467;-55
2021/06/29 03:46:29;;;;;;;12.57;11.47;;;22.90;1.00;;;;;;5073176;28;20926;-56
2021/06/29 03:48:54;;;;;;;12.93;11.70;;;23.00;1.00;;;;;;5070914;28;20182;-56
2021/06/29 03:51:20;;;;;;;11.97;10.97;;;23.30;1.00;;;;;;5070522;28;20237;-56
2021/06/29 03:53:46;;;;;;;11.03;9.97;;;23.40;1.00;;;;;;5072458;28;20179;-55
2021/06/29 03:56:27;;;;;;;12.50;11.37;;;23.70;1.00;;;;;;5071707;28;20219;-55
2021/06/29 03:59:01;;;;;;;11.80;10.90;;;23.70;1.00;;;;;;5069992;28;20179;-55
2021/06/29 04:01:28;;;;;;;11.93;10.90;;;23.70;1.00;;;;;;5069885;28;20456;-56
2021/06/29 04:03:57;;;;;;;13.20;11.80;;;23.60;1.00;;;;;;5071636;28;20437;-55
2021/06/29 04:06:28;;;;;;;13.33;12.13;;;23.50;1.00;;;;;;5069327;28;20437;-55
2021/06/29 04:08:55;;;;;;;12.47;11.33;;;23.30;1.00;;;;;;5071820;28;20764;-56
2021/06/29 04:11:22;;;;;;;12.27;11.30;;;23.20;1.00;;;;;;5071341;28;20437;-55
2021/06/29 04:13:47;;;;;;;12.43;11.43;;;23.10;1.00;;;;;;5072122;28;20434;-55
2021/06/29 04:16:13;;;;;;;12.87;11.67;;;23.10;1.00;;;;;;5071399;28;20494;-55
2021/06/29 04:18:39;;;;;;;13.43;11.60;;;23.20;1.00;;;;;;5070557;28;20187;-55
2021/06/29 04:21:05;;;;;;;12.53;11.47;;;23.30;1.00;;;;;;5071061;28;20214;-56
2021/06/29 04:23:31;;;;;;;12.27;11.30;;;23.30;1.00;;;;;;5070257;28;20522;-56
2021/06/29 04:25:56;;;;;;;12.30;11.20;;;23.30;1.00;;;;;;5071330;28;20180;-55
2021/06/29 04:28:22;;;;;;;12.57;11.57;;;23.30;1.00;;;;;;5053290;28;20205;-55
2021/06/29 04:30:47;;;;;;;12.60;11.37;;;23.30;1.00;;;;;;5071388;28;20215;-54
2021/06/29 04:33:13;;;;;;;13.90;12.50;;;23.40;1.00;;;;;;5068856;28;20179;-55
2021/06/29 04:35:38;;;;;;;12.13;11.10;;;23.50;1.00;;;;;;5071015;28;20180;-56
2021/06/29 04:38:04;;;;;;;13.93;12.53;;;23.50;1.00;;;;;;5071059;28;20175;-55
2021/06/29 04:40:30;;;;;;;12.37;11.17;;;23.40;1.00;;;;;;5070923;28;20190;-54
2021/06/29 04:42:55;;;;;;;14.33;12.97;;;23.50;1.00;;;;;;5071470;28;20237;-56
2021/06/29 04:45:22;;;;;;;12.53;11.53;;;23.50;1.00;;;;;;5070724;28;20187;-55
2021/06/29 04:47:48;;;;;;;13.00;11.90;;;23.60;1.00;;;;;;5070791;28;20288;-57
2021/06/29 04:50:17;;;;;;;12.80;11.70;;;23.70;1.00;;;;;;5070596;28;20945;-55
2021/06/29 04:52:43;;;;;;;12.73;11.67;;;23.80;1.00;;;;;;5070959;28;20180;-56
2021/06/29 04:55:10;;;;;;;13.03;12.00;;;23.70;1.00;;;;;;5070601;28;20460;-54
2021/06/29 04:57:35;;;;;;;13.23;12.03;;;23.60;1.00;;;;;;5068678;28;20518;-56
2021/06/29 05:00:06;;;;;;;13.80;12.53;;;23.50;1.00;;;;;;5070785;28;20446;-56
2021/06/29 05:02:31;;;;;;;12.63;11.63;;;23.50;1.00;;;;;;5070305;28;20187;-55
2021/06/29 05:04:57;;;;;;;13.33;12.13;;;23.50;1.00;;;;;;5070901;28;20446;-55
2021/06/29 05:07:22;;;;;;;14.30;13.10;;;23.60;1.00;;;;;;5070458;28;20260;-56
2021/06/29 05:09:48;;;;;;;13.60;12.60;;;23.40;1.00;;;;;;5070319;28;20187;-57
2021/06/29 05:12:13;;;;;;;13.10;11.80;;;23.40;1.00;;;;;;5070676;28;20656;-57
2021/06/29 05:14:39;;;;;;;14.10;12.67;;;23.30;1.00;;;;;;5070591;28;20180;-57
2021/06/29 05:17:04;;;;;;;14.17;12.97;;;23.30;1.00;;;;;;5070289;28;20192;-56
2021/06/29 05:19:30;;;;;;;13.43;12.23;;;23.30;1.00;;;;;;5069987;28;20298;-55
2021/06/29 05:21:55;;;;;;;15.17;13.40;;;23.40;1.00;;;;;;5069956;28;20268;-55
2021/06/29 05:24:21;;;;;;;14.17;12.67;;;23.50;1.00;;;;;;5069080;28;20541;-56
2021/06/29 05:26:47;;;;;;;13.47;12.27;;;23.60;1.00;;;;;;5069838;28;20225;-58
2021/06/29 05:29:12;;;;;;;13.80;12.50;;;23.60;1.00;;;;;;5069915;28;20219;-56
2021/06/29 05:31:38;;;;;;;14.93;13.50;;;23.60;1.00;;;;;;5070196;28;20194;-57
2021/06/29 05:34:03;;;;;;;14.70;13.30;;;23.60;1.00;;;;;;5069473;28;20191;-57
2021/06/29 05:36:29;;;;;;;13.90;12.70;;;23.70;1.00;;;;;;5070776;28;20181;-56
2021/06/29 05:38:54;;;;;;;13.97;12.40;;;23.80;1.00;;;;;;5069896;28;20293;-57
2021/06/29 05:41:20;;;;;;;13.90;12.50;;;23.80;1.00;;;;;;5070235;28;20186;-57
2021/06/29 05:43:46;;;;;;;12.17;11.17;;;23.80;1.00;;;;;;5069855;28;20233;-58
2021/06/29 05:46:13;;;;;;;13.40;12.20;;;23.70;1.00;;;;;;5070046;28;20191;-56
2021/06/29 05:48:39;;;;;;;13.63;12.33;;;23.80;1.00;;;;;;5070005;28;20431;-56
2021/06/29 05:51:05;;;;;;;14.73;13.53;;;23.80;1.00;;;;;;5069806;28;20490;-56
2021/06/29 05:53:31;;;;;;;13.17;12.07;;;23.80;1.00;;;;;;5069891;28;20285;-56
2021/06/29 05:55:57;;;;;;;13.10;12.07;;;23.50;1.00;;;;;;5069091;28;20437;-56
2021/06/29 05:58:23;;;;;;;14.70;13.40;;;23.40;1.00;;;;;;5069427;28;20531;-57
2021/06/29 06:00:49;;;;;;;14.53;13.23;;;23.30;1.00;;;;;;5069932;28;20537;-58
2021/06/29 06:03:15;;;;;;;16.03;14.17;;;23.30;1.00;;;;;;5069291;28;20191;-57
2021/06/29 06:05:41;;;;;;;12.87;11.83;;;23.30;1.00;;;;;;5069853;28;20445;-56
2021/06/29 06:08:07;;;;;;;13.83;12.63;;;23.40;1.00;;;;;;5069684;28;20762;-55
2021/06/29 06:10:33;;;;;;;13.70;12.50;;;23.30;1.00;;;;;;5069401;28;20441;-57
2021/06/29 06:12:58;;;;;;;13.27;11.90;;;23.30;1.00;;;;;;5070974;28;20187;-56
2021/06/29 06:15:24;;;;;;;14.17;12.97;;;23.30;1.00;;;;;;5069252;28;20676;-56
2021/06/29 06:17:49;;;;;;;12.87;11.67;;;23.40;1.00;;;;;;5069760;28;20189;-56
2021/06/29 06:20:15;;;;;;;14.67;13.13;;;23.50;1.00;;;;;;5068986;28;20183;-56
2021/06/29 06:22:41;;;;;;;12.17;10.97;;;23.70;1.00;;;;;;5069185;28;20256;-57
2021/06/29 06:25:08;;;;;;;12.10;11.10;;;23.70;1.00;;;;;;5068805;28;20343;-55
2021/06/29 06:27:35;;;;;;;13.93;12.67;;;23.70;1.00;;;;;;5069163;28;20563;-56
2021/06/29 06:30:00;;;;;;;12.50;11.40;;;23.80;1.00;;;;;;5068639;28;20481;-56
2021/06/29 06:32:26;;;;;;;13.80;12.63;;;23.90;1.00;;;;;;5069166;28;20792;-57
2021/06/29 06:34:51;;;;;;;13.87;12.53;;;24.00;1.00;;;;;;5069332;28;20207;-58
2021/06/29 06:37:17;;;;;;;13.77;12.43;;;24.20;1.00;;;;;;5068706;28;20183;-57
2021/06/29 06:39:42;;;;;;;15.10;13.80;;;24.30;1.00;;;;;;5070737;28;20193;-56
2021/06/29 06:42:08;;;;;;;14.93;12.80;;;24.30;1.00;;;;;;5070769;28;20186;-55
2021/06/29 06:44:34;;;;;;;14.33;12.93;;;24.50;1.00;;;;;;5073078;28;20267;-57
2021/06/29 06:46:59;;;;;;;13.80;12.70;;;24.50;1.00;;;;;;5074202;28;20199;-57
2021/06/29 06:49:26;;;;;;;14.50;13.10;;;24.50;1.00;;;;;;5073552;28;20186;-59
2021/06/29 06:51:51;;;;;;;14.10;12.80;;;24.60;1.00;;;;;;5072517;28;20180;-57
2021/06/29 06:54:17;;;;;;;13.87;12.70;;;24.70;1.00;;;;;;5073051;28;20864;-57
2021/06/29 06:56:43;;;;;;;13.17;12.07;;;24.90;1.00;;;;;;5071291;28;20183;-56
2021/06/29 06:59:08;;;;;;;18.37;16.40;;;25.00;1.00;;;;;;5073290;28;20210;-56
2021/06/29 07:01:38;;;;;;;17.00;15.20;;;25.20;1.00;;;;;;5072591;28;20244;-57
2021/06/29 07:04:03;;;;;;;14.80;13.40;;;25.20;1.00;;;;;;5071979;28;20269;-57
2021/06/29 07:06:29;;;;;;;15.03;13.70;;;25.30;1.00;;;;;;5072701;28;20947;-56
2021/06/29 07:08:55;;;;;;;12.97;11.53;;;25.50;1.00;;;;;;5072628;28;20962;-57
2021/06/29 07:11:20;;;;;;;14.60;12.30;;;25.80;1.00;;;;;;5072094;28;20202;-57
2021/06/29 07:13:46;;;;;;;12.43;11.47;;;26.00;1.00;;;;;;5072940;28;20232;-57
2021/06/29 07:16:11;;;;;;;13.27;11.87;;;26.10;1.00;;;;;;5072458;28;20180;-58
2021/06/29 07:18:37;;;;;;;12.27;10.97;;;26.20;1.00;;;;;;5072248;28;20191;-56
2021/06/29 07:21:03;;;;;;;14.57;11.47;;;26.30;1.00;;;;;;5072515;28;20535;-58
2021/06/29 07:23:28;;;;;;;11.63;10.47;;;26.40;1.00;;;;;;5073653;28;21325;-56
2021/06/29 07:25:54;;;;;;;11.80;10.47;;;26.40;1.00;;;;;;5070570;28;20218;-56
2021/06/29 07:28:19;;;;;;;10.20;8.30;;;26.30;1.00;;;;;;5072245;28;20215;-58
2021/06/29 07:30:45;;;;;;;8.87;8.00;;;26.10;1.00;;;;;;5072285;28;20223;-55
2021/06/29 07:33:11;;;;;;;11.00;10.00;;;25.90;1.00;;;;;;5071734;28;20230;-55
2021/06/29 07:35:36;;;;;;;14.47;11.17;;;25.90;1.00;;;;;;5071827;28;20198;-56
2021/06/29 07:38:03;;;;;;;10.83;9.73;;;26.10;1.00;;;;;;5072635;28;20334;-56
2021/06/29 07:40:31;;;;;;;12.97;11.00;;;26.20;1.00;;;;;;5072251;28;20203;-56
2021/06/29 07:46:35;;;;;;;13.37;11.30;;;26.70;1.00;;;;;;4925606;29;20563;-55
2021/06/29 07:49:47;;;;;;;11.10;10.00;;;27.00;1.00;;;;;;5026900;28;20548;-56
2021/06/29 07:55:28;;;;;;;9.57;8.77;;;27.50;1.00;;;;;;5039983;28;20820;-55
2021/06/29 07:57:53;;;;;;;9.80;8.40;;;27.80;1.00;;;;;;5072227;28;21062;-57
2021/06/29 08:00:19;;;;;;;9.93;8.90;;;28.20;1.00;;;;;;5071881;28;20189;-55
2021/06/29 08:02:45;;;;;;;9.23;8.33;;;28.80;1.00;;;;;;5071725;28;20198;-56
2021/06/29 08:05:10;;;;;;;8.70;7.90;;;28.80;1.00;;;;;;5070647;28;20499;-56
2021/06/29 08:07:36;;;;;;;7.30;6.70;;;29.00;1.00;;;;;;5070800;28;20638;-55
2021/06/29 08:10:04;;;;;;;7.20;6.60;;;29.10;1.00;;;;;;5071870;28;20214;-56
2021/06/29 08:12:29;;;;;;;8.20;7.50;;;29.30;1.00;;;;;;5072064;28;20210;-56
2021/06/29 08:14:55;;;;;;;5.80;5.30;;;29.70;1.00;;;;;;5071973;28;20471;-56
2021/06/29 08:20:07;;;;;;;4.13;3.83;;;30.10;1.00;;;;;;5070393;28;20186;-56
2021/06/29 08:22:33;;;;;;;4.60;4.20;;;30.20;1.00;;;;;;5071949;28;20438;-56
2021/06/29 08:24:58;;;;;;;5.30;4.80;;;29.90;1.00;;;;;;5071750;28;20526;-56
2021/06/29 08:27:24;;;;;;;3.60;3.40;;;29.90;1.00;;;;;;5071555;28;20290;-56
2021/06/29 08:29:52;;;;;;;4.50;4.20;;;29.70;1.00;;;;;;5071046;28;20261;-55
2021/06/29 08:32:18;;;;;;;5.10;4.60;;;29.80;1.00;;;;;;5071587;28;20180;-56
2021/06/29 08:34:44;;;;;;;4.30;3.90;;;29.60;1.00;;;;;;5069850;28;20446;-56
2021/06/29 08:37:09;;;;;;;5.20;4.80;;;29.10;1.00;;;;;;5071161;28;20266;-56
2021/06/29 08:39:35;;;;;;;4.50;4.10;;;28.50;1.00;;;;;;5071896;28;20226;-56
2021/06/29 08:42:01;;;;;;;4.10;3.70;;;28.40;1.00;;;;;;5070052;28;20206;-56
2021/06/29 08:44:26;;;;;;;4.30;4.00;;;28.50;1.00;;;;;;5070151;28;20189;-55
2021/06/29 08:46:52;;;;;;;4.50;4.07;;;28.40;1.00;;;;;;5071249;28;20282;-60
2021/06/29 08:49:17;;;;;;;7.30;3.77;;;28.80;1.00;;;;;;5071159;28;20184;-57
2021/06/29 08:51:43;;;;;;;4.80;4.40;;;29.20;1.00;;;;;;5071419;28;20192;-56
2021/06/29 08:54:09;;;;;;;4.87;4.47;;;29.70;1.00;;;;;;5071031;28;20637;-55
2021/06/29 08:56:34;;;;;;;6.43;3.97;;;30.00;1.00;;;;;;5071333;28;20297;-57
2021/06/29 08:59:00;;;;;;;4.20;3.90;;;30.10;1.00;;;;;;5070818;28;20237;-57
2021/06/29 09:01:30;;;;;;;5.73;4.50;;;29.90;1.00;;;;;;5069570;28;20641;-56
2021/06/29 09:03:56;;;;;;;4.90;4.47;;;29.20;1.00;;;;;;5075787;28;20467;-54
2021/06/29 09:06:33;;;;;;;4.43;4.03;;;28.90;1.00;;;;;;5070517;28;20448;-55
2021/06/29 09:09:28;;;;;;;4.63;4.20;;;28.80;1.00;;;;;;5071184;28;20408;-55
2021/06/29 09:11:55;;;;;;;4.30;4.00;;;28.80;1.00;;;;;;5069702;28;20958;-55
2021/06/29 09:14:28;;;;;;;5.27;4.80;;;28.60;1.00;;;;;;5070658;28;20510;-56
2021/06/29 09:17:13;;;;;;;5.00;4.50;;;28.70;1.00;;;;;;5070938;28;20448;-55
2021/06/29 09:19:39;;;;;;;4.53;4.13;;;28.90;1.00;;;;;;5070209;28;20446;-55
2021/06/29 09:22:31;;;;;;;5.10;4.70;;;29.40;1.00;;;;;;5069177;28;20437;-55
2021/06/29 09:24:57;;;;;;;4.80;4.40;;;29.70;1.00;;;;;;5070844;28;20187;-55
2021/06/29 09:27:45;;;;;;;4.50;4.10;;;29.90;1.00;;;;;;5070294;28;20453;-56
2021/06/29 09:30:27;;;;;;;4.73;4.23;;;29.80;1.00;;;;;;5069728;28;20456;-55
2021/06/29 09:32:57;;;;;;;4.60;4.20;;;29.80;1.00;;;;;;5074740;28;20525;-56
2021/06/29 09:35:22;;;;;;;5.27;4.77;;;30.20;1.00;;;;;;5070391;28;21082;-56
2021/06/29 09:37:48;;;;;;;4.70;4.40;;;30.30;1.00;;;;;;5070251;28;20931;-56
2021/06/29 09:40:15;;;;;;;4.97;4.50;;;29.90;1.00;;;;;;5069823;28;20631;-56
2021/06/29 09:42:41;;;;;;;4.87;4.47;;;29.60;1.00;;;;;;5070400;28;20561;-56
2021/06/29 09:45:30;;;;;;;5.43;5.03;;;29.60;1.00;;;;;;5070525;28;20442;-55
2021/06/29 09:47:56;;;;;;;5.57;4.93;;;29.60;1.00;;;;;;5070492;28;20557;-55
2021/06/29 09:50:38;;;;;;;4.83;4.43;;;29.80;1.00;;;;;;5070438;28;20491;-56
2021/06/29 09:53:24;;;;;;;5.87;5.20;;;30.70;1.00;;;;;;5070713;28;20532;-57
2021/06/29 09:55:57;;;;;;;5.60;5.20;;;31.10;1.00;;;;;;5069423;28;20479;-56
2021/06/29 09:58:23;;;;;;;7.77;5.00;;;31.20;1.00;;;;;;5070026;28;20440;-55
2021/06/29 10:00:55;;;;;;;5.53;5.10;;;31.20;1.00;;;;;;5070182;28;20434;-56
2021/06/29 10:03:32;;;;;;;4.87;4.40;;;31.20;1.00;;;;;;5074144;28;20441;-55
2021/06/29 10:06:18;;;;;;;12.20;5.37;;;31.20;1.00;;;;;;5069915;28;20748;-56
2021/06/29 10:08:46;;;;;;;5.53;5.03;;;31.50;1.00;;;;;;5069159;28;20530;-56
2021/06/29 10:11:21;;;;;;;5.60;5.20;;;31.50;1.00;;;;;;5069786;28;20442;-56
2021/06/29 10:13:46;;;;;;;5.67;5.27;;;31.50;1.00;;;;;;5069197;28;20451;-56
2021/06/29 10:16:15;;;;;;;6.70;6.20;;;31.00;1.00;;;;;;5068995;28;20429;-56
2021/06/29 10:21:23;;;;;;;5.43;5.03;;;30.40;1.00;;;;;;5069898;28;20453;-56
2021/06/29 10:24:07;;;;;;;5.80;5.40;;;30.40;1.00;;;;;;5069869;28;20821;-55
2021/06/29 10:26:35;;;;;;;7.97;5.33;;;30.50;1.00;;;;;;5070509;28;20806;-54
2021/06/29 10:29:05;;;;;;;6.07;4.97;;;30.50;1.00;;;;;;5031693;28;1089368;-55
2021/06/29 10:31:33;;;;;;;6.30;5.80;;;30.50;1.00;;;;;;5070580;28;20176;-56
2021/06/29 10:34:01;;;;;;;7.30;6.10;;;30.10;1.00;;;;;;5069181;28;20844;-55
2021/06/29 10:36:29;;;;;;;6.23;5.60;;;30.20;1.00;;;;;;5070328;28;20466;-56
2021/06/29 10:38:55;;;;;;;6.47;6.00;;;30.10;1.00;;;;;;5052525;28;20441;-56
2021/06/29 10:41:24;;;;;;;6.10;5.50;;;29.90;1.00;;;;;;5071697;28;20481;-56
2021/06/29 10:43:51;;;;;;;6.47;5.90;;;30.00;1.00;;;;;;5070710;28;20769;-57
2021/06/29 10:46:29;;;;;;;8.00;4.80;;;30.30;1.00;;;;;;5070486;28;20429;-57
2021/06/29 10:48:55;;;;;;;5.90;5.40;;;30.90;1.00;;;;;;5070184;28;20434;-56
2021/06/29 10:51:37;;;;;;;6.13;5.53;;;31.50;1.00;;;;;;5070576;28;20520;-56
2021/06/29 10:54:03;;;;;;;5.17;4.77;;;32.00;1.00;;;;;;5069564;28;20475;-57
2021/06/29 10:56:53;;;;;;;13.73;6.07;;;32.40;1.00;;;;;;5070402;28;20442;-56
2021/06/29 10:59:31;;;;;;;6.67;6.07;;;32.90;1.00;;;;;;5065031;28;20457;-55
2021/06/29 11:01:58;;;;;;;6.00;5.30;;;32.80;1.00;;;;;;5070153;28;20442;-56
2021/06/29 11:04:55;;;;;;;6.00;5.57;;;32.10;1.00;;;;;;5070409;28;20996;-54
2021/06/29 11:07:27;;;;;;;7.67;5.90;;;31.70;1.00;;;;;;5065082;28;20861;-55
2021/06/29 11:09:52;;;;;;;6.57;5.93;;;31.80;1.00;;;;;;5070131;28;20425;-56
2021/06/29 11:12:23;;;;;;;6.70;6.10;;;31.50;1.00;;;;;;5071166;28;20441;-56
2021/06/29 11:14:53;;;;;;;6.40;6.00;;;31.40;1.00;;;;;;5068909;28;20168;-56
2021/06/29 11:17:22;;;;;;;5.77;5.37;;;31.40;1.00;;;;;;5070425;28;20957;-58
2021/06/29 11:20:03;;;;;;;6.27;5.67;;;31.50;1.00;;;;;;5070594;28;20957;-56
2021/06/29 11:23:05;;;;;;;5.43;5.00;;;31.40;1.00;;;;;;5068851;28;20441;-56
2021/06/29 11:25:41;;;;;;;5.23;4.80;;;31.50;1.00;;;;;;5065261;28;20845;-55
2021/06/29 11:28:16;;;;;;;6.10;5.60;;;31.30;1.00;;;;;;5071154;28;20855;-55
2021/06/29 11:30:51;;;;;;;6.20;4.93;;;31.40;1.00;;;;;;5073823;28;20460;-57
2021/06/29 11:33:47;;;;;;;6.17;5.10;;;31.30;1.00;;;;;;5073278;28;20437;-56
2021/06/29 11:36:32;;;;;;;5.37;4.97;;;31.00;1.00;;;;;;5073464;28;20507;-54
2021/06/29 11:39:21;;;;;;;11.13;5.13;;;30.30;1.00;;;;;;5073570;28;20509;-56
2021/06/29 11:41:58;;;;;;;5.67;5.17;;;29.70;1.00;;;;;;5065680;28;20800;-56
2021/06/29 11:44:24;;;;;;;5.67;5.27;;;29.40;1.00;;;;;;5073195;28;20433;-56
2021/06/29 11:46:54;;;;;;;5.20;4.80;;;29.30;1.00;;;;;;5073553;28;20442;-55
2021/06/29 11:49:33;;;;;;;5.80;5.30;;;29.30;1.00;;;;;;5072254;28;20445;-56
2021/06/29 11:52:13;;;;;;;5.73;5.27;;;29.20;1.00;;;;;;5073118;28;20426;-56
2021/06/29 11:54:43;;;;;;;6.67;5.27;;;29.10;1.00;;;;;;5073158;28;20441;-56
2021/06/29 11:57:19;;;;;;;6.53;5.50;;;29.30;1.00;;;;;;5073292;28;20432;-55
2021/06/29 11:59:46;;;;;;;6.17;5.67;;;29.70;1.00;;;;;;5068565;28;20438;-55
2021/06/29 12:02:17;;;;;;;6.17;5.67;;;29.70;1.00;;;;;;5073141;28;20441;-55
2021/06/29 12:04:59;;;;;;;6.67;6.07;;;29.90;1.00;;;;;;5073020;28;20452;-57
2021/06/29 12:07:51;;;;;;;7.00;6.40;;;29.90;1.00;;;;;;5071473;28;21037;-55
2021/06/29 12:10:21;;;;;;;6.67;6.17;;;29.80;1.00;;;;;;5069309;28;20515;-55
2021/06/29 12:12:57;;;;;;;6.90;6.30;;;29.70;1.00;;;;;;5066448;28;20524;-56
2021/06/29 12:15:32;;;;;;;7.03;6.13;;;29.70;1.00;;;;;;5073108;28;20782;-55
2021/06/29 12:18:06;;;;;;;9.40;6.03;;;29.50;1.00;;;;;;5072854;28;20490;-56
2021/06/29 12:20:56;;;;;;;6.57;6.10;;;29.50;1.00;;;;;;5072511;28;20902;-55
2021/06/29 12:23:27;;;;;;;7.97;7.10;;;29.40;1.00;;;;;;5071558;28;20874;-58
2021/06/29 12:25:55;;;;;;;6.83;6.23;;;29.20;1.00;;;;;;5067762;28;20486;-56
2021/06/29 12:28:23;;;;;;;7.40;6.90;;;29.20;1.00;;;;;;5070670;28;20492;-55
2021/06/29 12:30:59;;;;;;;9.23;8.13;;;29.00;1.00;;;;;;5072060;28;20491;-56
2021/06/29 12:33:35;;;;;;;8.37;6.60;;;28.70;1.00;;;;;;5072483;28;20502;-55
2021/06/29 12:36:01;;;;;;;7.00;6.40;;;28.70;1.00;;;;;;5072019;28;20836;-56
2021/06/29 12:38:29;;;;;;;7.50;6.90;;;29.00;1.00;;;;;;5072178;28;20461;-56
2021/06/29 12:41:00;;;;;;;6.60;6.07;;;29.00;1.00;;;;;;5070155;28;20190;-55
2021/06/29 12:43:32;;;;;;;7.90;7.17;;;28.90;1.00;;;;;;5072177;28;20442;-56
2021/06/29 12:46:19;;;;;;;12.37;7.57;;;29.00;1.00;;;;;;5066726;28;20444;-56
2021/06/29 12:49:15;;;;;;;7.50;6.90;;;29.20;1.00;;;;;;5071906;28;20509;-57
2021/06/29 12:51:48;;;;;;;6.60;6.10;;;29.50;1.00;;;;;;5070996;28;21035;-58
2021/06/29 12:54:17;;;;;;;7.60;6.53;;;29.70;1.00;;;;;;5071679;28;20438;-56
2021/06/29 12:56:55;;;;;;;6.23;5.73;;;29.50;1.00;;;;;;5070657;28;20430;-56
2021/06/29 12:59:24;;;;;;;6.70;6.20;;;29.50;1.00;;;;;;5071966;28;20429;-56
2021/06/29 13:01:55;;;;;;;7.67;7.00;;;29.40;1.00;;;;;;5071784;28;20954;-55
2021/06/29 13:04:24;;;;;;;17.17;15.37;;;29.20;1.00;;;;;;5070677;28;20792;-56
2021/06/29 13:07:05;;;;;;;7.23;6.70;;;29.30;1.00;;;;;;5071977;28;20438;-57